createdAt,value
2019-02-24T00:01:49.684Z,8.13
2019-02-24T00:04:19.573Z,8.67
2019-02-24T00:06:48.364Z,7.70
2019-02-24T00:09:17.220Z,6.70
2019-02-24T00:11:46.085Z,7.67
2019-02-24T00:14:14.837Z,7.83
2019-02-24T00:16:43.645Z,7.20
2019-02-24T00:19:12.468Z,7.93
2019-02-24T00:21:41.291Z,6.77
2019-02-24T00:24:10.131Z,8.77
2019-02-24T00:26:39.027Z,7.73
2019-02-24T00:29:07.778Z,8.20
2019-02-24T00:31:36.550Z,8.27
2019-02-24T00:34:05.373Z,8.20
2019-02-24T00:36:34.188Z,8.37
2019-02-24T00:39:02.994Z,7.67
2019-02-24T00:41:31.799Z,7.63
2019-02-24T00:44:01.418Z,8.53
2019-02-24T00:46:30.259Z,7.30
2019-02-24T00:48:59.058Z,7.17
2019-02-24T00:51:27.837Z,8.23
2019-02-24T00:53:56.604Z,7.97
2019-02-24T00:56:25.412Z,7.20
2019-02-24T00:58:54.218Z,8.30
2019-02-24T01:01:23.004Z,8.37
2019-02-24T01:03:51.837Z,7.13
2019-02-24T01:06:20.598Z,8.33
2019-02-24T01:08:49.418Z,7.57
2019-02-24T01:11:18.253Z,7.90
2019-02-24T01:13:46.997Z,8.70
2019-02-24T01:16:15.755Z,8.83
2019-02-24T01:18:44.562Z,9.17
2019-02-24T01:21:13.397Z,7.23
2019-02-24T01:23:42.228Z,8.23
2019-02-24T01:26:11.053Z,7.30
2019-02-24T01:28:39.802Z,8.10
2019-02-24T01:31:08.555Z,6.87
2019-02-24T01:33:37.420Z,8.00
2019-02-24T01:36:06.244Z,9.00
2019-02-24T01:38:35.082Z,7.83
2019-02-24T01:41:03.938Z,7.07
2019-02-24T01:43:32.692Z,6.87
2019-02-24T01:46:02.435Z,6.67
2019-02-24T01:48:31.256Z,8.03
2019-02-24T01:51:00.083Z,7.57
2019-02-24T01:53:28.924Z,7.67
2019-02-24T01:55:57.748Z,8.83
2019-02-24T01:58:34.637Z,8.40
2019-02-24T02:00:57.050Z,8.40
2019-02-24T02:03:25.853Z,7.50
2019-02-24T02:05:54.612Z,6.77
2019-02-24T02:08:23.467Z,7.43
2019-02-24T02:10:52.346Z,7.57
2019-02-24T02:13:21.107Z,8.13
2019-02-24T02:15:49.900Z,8.40
2019-02-24T02:18:18.789Z,8.70
2019-02-24T02:20:47.601Z,7.03
2019-02-24T02:23:16.363Z,6.70
2019-02-24T02:25:45.174Z,7.93
2019-02-24T02:28:13.931Z,7.50
2019-02-24T02:30:42.758Z,7.13
2019-02-24T02:33:11.619Z,6.37
2019-02-24T02:35:40.388Z,7.57
2019-02-24T02:38:09.139Z,7.13
2019-02-24T02:40:37.965Z,6.73
2019-02-24T02:43:06.746Z,7.83
2019-02-24T02:45:35.499Z,7.10
2019-02-24T02:48:04.315Z,7.87
2019-02-24T02:50:33.050Z,7.53
2019-02-24T02:53:01.812Z,7.70
2019-02-24T02:55:30.684Z,8.03
2019-02-24T02:57:59.491Z,7.97
2019-02-24T03:00:34.132Z,7.30
2019-02-24T03:03:02.884Z,6.83
2019-02-24T03:05:31.812Z,7.87
2019-02-24T03:08:08.126Z,8.10
2019-02-24T03:10:36.869Z,7.57
2019-02-24T03:13:05.697Z,8.17
2019-02-24T03:15:34.597Z,7.80
2019-02-24T03:18:03.419Z,8.67
2019-02-24T03:20:32.163Z,8.80
2019-02-24T03:23:00.978Z,8.43
2019-02-24T03:25:29.723Z,9.47
2019-02-24T03:27:58.484Z,8.90
2019-02-24T03:30:27.366Z,8.50
2019-02-24T03:32:56.213Z,7.10
2019-02-24T03:35:24.969Z,7.63
2019-02-24T03:37:53.805Z,7.10
2019-02-24T03:40:22.572Z,6.53
2019-02-24T03:42:51.322Z,6.73
2019-02-24T03:45:20.227Z,7.13
2019-02-24T03:47:48.973Z,7.37
2019-02-24T03:50:17.814Z,6.57
2019-02-24T03:52:46.595Z,7.47
2019-02-24T03:55:15.380Z,7.20
2019-02-24T03:57:44.233Z,7.50
2019-02-24T04:00:13.045Z,7.07
2019-02-24T04:02:41.804Z,6.70
2019-02-24T04:05:10.627Z,7.80
2019-02-24T04:07:39.452Z,7.40
2019-02-24T04:10:08.270Z,7.27
2019-02-24T04:12:37.026Z,7.40
2019-02-24T04:15:06.524Z,7.33
2019-02-24T04:17:35.368Z,7.53
2019-02-24T04:20:04.446Z,8.63
2019-02-24T04:22:33.267Z,7.70
2019-02-24T04:25:02.099Z,7.27
2019-02-24T04:27:30.869Z,7.10
2019-02-24T04:29:59.771Z,7.93
2019-02-24T04:32:28.574Z,7.17
2019-02-24T04:34:57.394Z,6.30
2019-02-24T04:37:26.299Z,7.50
2019-02-24T04:39:55.051Z,7.37
2019-02-24T04:42:23.892Z,6.83
2019-02-24T04:44:52.723Z,9.40
2019-02-24T04:47:21.549Z,8.57
2019-02-24T04:49:50.326Z,8.87
2019-02-24T04:52:19.119Z,7.93
2019-02-24T04:54:47.858Z,6.87
2019-02-24T04:57:16.628Z,7.67
2019-02-24T04:59:45.444Z,7.37
2019-02-24T05:02:14.187Z,7.40
2019-02-24T05:04:42.946Z,7.17
2019-02-24T05:07:11.852Z,6.63
2019-02-24T05:09:40.699Z,8.20
2019-02-24T05:12:09.484Z,7.33
2019-02-24T05:14:38.274Z,8.40
2019-02-24T05:17:07.028Z,7.47
2019-02-24T05:19:35.859Z,7.40
2019-02-24T05:22:04.753Z,7.40
2019-02-24T05:24:33.489Z,8.07
2019-02-24T05:27:02.243Z,8.17
2019-02-24T05:29:31.174Z,8.07
2019-02-24T05:31:59.988Z,6.70
2019-02-24T05:34:28.746Z,7.50
2019-02-24T05:36:57.566Z,6.60
2019-02-24T05:39:26.316Z,7.53
2019-02-24T05:41:55.153Z,7.67
2019-02-24T05:44:24.022Z,8.27
2019-02-24T05:46:52.859Z,7.27
2019-02-24T05:49:21.619Z,8.27
2019-02-24T05:51:50.500Z,8.00
2019-02-24T05:54:19.310Z,6.53
2019-02-24T05:56:48.028Z,6.83
2019-02-24T05:59:16.853Z,7.90
2019-02-24T06:01:45.602Z,7.20
2019-02-24T06:04:14.373Z,7.27
2019-02-24T06:06:43.209Z,7.63
2019-02-24T06:09:12.020Z,7.07
2019-02-24T06:11:40.866Z,7.43
2019-02-24T06:14:09.677Z,7.10
2019-02-24T06:16:38.508Z,8.10
2019-02-24T06:19:07.356Z,7.17
2019-02-24T06:21:36.171Z,7.97
2019-02-24T06:24:04.940Z,6.83
2019-02-24T06:26:33.776Z,7.53
2019-02-24T06:29:02.651Z,5.93
2019-02-24T06:31:31.410Z,7.00
2019-02-24T06:34:00.164Z,7.30
2019-02-24T06:36:29.068Z,7.03
2019-02-24T06:38:57.836Z,6.77
2019-02-24T06:41:26.658Z,7.63
2019-02-24T06:43:55.512Z,7.83
2019-02-24T06:46:24.366Z,7.53
2019-02-24T06:48:53.134Z,6.70
2019-02-24T06:51:22.028Z,7.33
2019-02-24T06:53:50.877Z,6.83
2019-02-24T06:56:19.724Z,7.77
2019-02-24T06:58:48.528Z,6.83
2019-02-24T07:01:17.283Z,7.30
2019-02-24T07:03:46.106Z,7.33
2019-02-24T07:06:14.972Z,7.97
2019-02-24T07:08:43.758Z,8.80
2019-02-24T07:11:12.572Z,7.67
2019-02-24T07:13:41.402Z,7.77
2019-02-24T07:16:10.244Z,7.47
2019-02-24T07:18:39.116Z,9.30
2019-02-24T07:21:08.003Z,7.83
2019-02-24T07:23:36.778Z,8.20
2019-02-24T07:26:05.612Z,7.80
2019-02-24T07:28:34.516Z,7.37
2019-02-24T07:31:03.348Z,7.23
2019-02-24T07:33:32.195Z,7.87
2019-02-24T07:36:01.043Z,7.20
2019-02-24T07:38:29.812Z,6.77
2019-02-24T07:40:58.716Z,7.90
2019-02-24T07:43:27.628Z,8.70
2019-02-24T07:45:56.468Z,9.43
2019-02-24T07:48:25.220Z,7.87
2019-02-24T07:50:54.150Z,8.30
2019-02-24T07:53:23.011Z,9.63
2019-02-24T07:55:51.797Z,10.57
2019-02-24T07:58:20.764Z,9.80
2019-02-24T08:00:49.603Z,7.90
2019-02-24T08:03:18.377Z,8.33
2019-02-24T08:05:47.196Z,9.10
2019-02-24T08:08:16.635Z,9.10
2019-02-24T08:10:45.652Z,8.77
2019-02-24T08:13:14.522Z,8.37
2019-02-24T08:15:43.280Z,8.30
2019-02-24T08:18:12.055Z,8.03
2019-02-24T08:20:40.868Z,7.60
2019-02-24T08:23:10.989Z,8.30
2019-02-24T08:25:39.991Z,8.90
2019-02-24T08:28:08.868Z,9.40
2019-02-24T08:30:41.597Z,8.33
2019-02-24T08:33:08.204Z,8.73
2019-02-24T08:35:37.132Z,8.10
2019-02-24T08:38:05.939Z,8.57
2019-02-24T08:40:34.820Z,8.43
2019-02-24T08:43:03.682Z,7.30
2019-02-24T08:45:32.509Z,7.60
2019-02-24T08:48:01.332Z,8.33
2019-02-24T08:50:30.220Z,8.63
2019-02-24T08:52:59.035Z,8.80
2019-02-24T08:55:27.908Z,8.07
2019-02-24T08:57:56.804Z,7.83
2019-02-24T09:00:25.614Z,8.00
2019-02-24T09:02:54.436Z,8.83
2019-02-24T09:05:23.332Z,7.70
2019-02-24T09:07:52.150Z,7.80
2019-02-24T09:10:21.004Z,7.87
2019-02-24T09:12:49.898Z,8.40
2019-02-24T09:15:18.846Z,7.93
2019-02-24T09:17:48.014Z,8.57
2019-02-24T09:20:16.892Z,9.00
2019-02-24T09:22:47.181Z,9.77
2019-02-24T09:25:16.180Z,9.23
2019-02-24T09:27:45.060Z,8.67
2019-02-24T09:30:16.716Z,9.63
2019-02-24T09:32:45.644Z,10.10
2019-02-24T09:35:14.525Z,9.20
2019-02-24T09:37:43.276Z,9.47
2019-02-24T09:40:12.849Z,9.80
2019-02-24T09:42:41.725Z,9.87
2019-02-24T09:45:13.667Z,9.47
2019-02-24T09:47:46.702Z,8.47
2019-02-24T09:50:12.933Z,8.30
2019-02-24T09:52:41.757Z,9.10
2019-02-24T09:55:10.527Z,8.67
2019-02-24T09:57:39.436Z,8.27
2019-02-24T10:00:11.131Z,7.50
2019-02-24T10:02:39.956Z,8.37
2019-02-24T10:05:08.964Z,8.43
2019-02-24T10:07:37.749Z,8.53
2019-02-24T10:10:09.507Z,8.97
2019-02-24T10:12:38.307Z,9.27
2019-02-24T10:15:10.326Z,8.37
2019-02-24T10:17:39.092Z,8.77
2019-02-24T10:20:10.099Z,9.63
2019-02-24T10:22:38.908Z,9.20
2019-02-24T10:25:08.836Z,9.53
2019-02-24T10:27:37.743Z,9.93
2019-02-24T10:30:09.763Z,10.20
2019-02-24T10:32:38.621Z,9.47
2019-02-24T10:35:08.060Z,9.37
2019-02-24T10:37:36.932Z,9.60
2019-02-24T10:40:12.510Z,9.97
2019-02-24T10:42:41.551Z,9.87
2019-02-24T10:45:12.828Z,9.93
2019-02-24T10:47:41.644Z,9.63
2019-02-24T10:50:12.730Z,10.17
2019-02-24T10:52:41.575Z,10.10
2019-02-24T10:55:10.484Z,10.87
2019-02-24T10:57:39.396Z,11.30
2019-02-24T11:00:17.220Z,11.37
2019-02-24T11:02:46.026Z,10.40
2019-02-24T11:05:20.412Z,10.13
2019-02-24T11:07:49.285Z,11.20
2019-02-24T11:10:18.085Z,9.77
2019-02-24T11:12:46.844Z,11.03
2019-02-24T11:15:15.701Z,9.53
2019-02-24T11:17:44.588Z,10.57
2019-02-24T11:20:16.293Z,9.40
2019-02-24T11:22:45.106Z,9.67
2019-02-24T11:25:14.020Z,9.47
2019-02-24T11:27:42.870Z,9.03
2019-02-24T11:30:13.204Z,9.33
2019-02-24T11:32:42.104Z,9.97
2019-02-24T11:35:12.028Z,8.70
2019-02-24T11:37:40.861Z,8.17
2019-02-24T11:40:15.260Z,8.10
2019-02-24T11:42:44.091Z,8.40
2019-02-24T11:45:12.868Z,7.57
2019-02-24T11:47:41.753Z,7.13
2019-02-24T11:50:11.488Z,7.33
2019-02-24T11:52:40.317Z,7.93
2019-02-24T11:55:10.358Z,6.40
2019-02-24T11:57:39.182Z,6.90
2019-02-24T12:00:11.284Z,6.93
2019-02-24T12:02:41.705Z,7.07
2019-02-24T12:05:10.909Z,5.50
2019-02-24T12:07:39.692Z,6.43
2019-02-24T12:10:12.941Z,7.13
2019-02-24T12:12:41.803Z,6.57
2019-02-24T12:15:12.220Z,5.27
2019-02-24T12:17:41.054Z,5.23
2019-02-24T12:20:11.498Z,5.83
2019-02-24T12:22:40.373Z,5.93
2019-02-24T12:25:10.556Z,5.47
2019-02-24T12:27:39.486Z,5.57
2019-02-24T12:30:16.122Z,6.67
2019-02-24T12:32:44.894Z,5.80
2019-02-24T12:35:13.635Z,5.93
2019-02-24T12:37:42.524Z,5.43
2019-02-24T12:40:16.161Z,6.40
2019-02-24T12:42:45.012Z,5.23
2019-02-24T12:45:13.844Z,5.53
2019-02-24T12:47:42.679Z,6.23
2019-02-24T12:50:18.658Z,6.67
2019-02-24T12:52:47.396Z,6.87
2019-02-24T12:55:16.252Z,6.27
2019-02-24T12:57:45.152Z,6.73
2019-02-24T13:00:20.155Z,6.70
2019-02-24T13:02:49.063Z,6.23
2019-02-24T13:05:17.895Z,6.70
2019-02-24T13:07:46.654Z,6.23
2019-02-24T13:10:17.451Z,5.60
2019-02-24T13:12:46.188Z,5.23
2019-02-24T13:15:15.020Z,6.17
2019-02-24T13:17:43.852Z,6.47
2019-02-24T13:20:12.987Z,5.73
2019-02-24T13:22:41.823Z,6.23
2019-02-24T13:25:12.063Z,6.10
2019-02-24T13:27:40.892Z,6.23
2019-02-24T13:30:15.651Z,5.27
2019-02-24T13:32:44.486Z,5.60
2019-02-24T13:35:13.244Z,5.90
2019-02-24T13:37:41.989Z,5.37
2019-02-24T13:40:12.677Z,5.90
2019-02-24T13:42:41.517Z,6.03
2019-02-24T13:45:12.996Z,5.67
2019-02-24T13:47:43.954Z,5.40
2019-02-24T13:50:12.797Z,6.03
2019-02-24T13:52:41.565Z,6.37
2019-02-24T13:55:12.436Z,4.63
2019-02-24T13:57:41.282Z,5.37
2019-02-24T14:00:13.342Z,5.07
2019-02-24T14:02:42.252Z,5.13
2019-02-24T14:05:11.079Z,5.60
2019-02-24T14:07:39.931Z,4.90
2019-02-24T14:10:11.780Z,5.07
2019-02-24T14:12:40.537Z,5.30
2019-02-24T14:15:13.996Z,4.60
2019-02-24T14:17:42.810Z,5.53
2019-02-24T14:20:17.116Z,5.80
2019-02-24T14:22:45.942Z,6.20
2019-02-24T14:25:15.757Z,6.23
2019-02-24T14:27:44.493Z,5.50
2019-02-24T14:30:15.733Z,5.50
2019-02-24T14:32:44.682Z,5.47
2019-02-24T14:35:15.948Z,5.10
2019-02-24T14:37:44.803Z,4.83
2019-02-24T14:40:13.821Z,4.70
2019-02-24T14:42:42.667Z,4.30
2019-02-24T14:45:16.637Z,4.87
2019-02-24T14:47:45.507Z,4.40
2019-02-24T14:50:14.383Z,5.40
2019-02-24T14:52:43.230Z,4.80
2019-02-24T14:55:13.460Z,5.10
2019-02-24T14:57:42.276Z,5.20
2019-02-24T15:00:24.700Z,4.50
2019-02-24T15:02:53.498Z,5.03
2019-02-24T15:05:22.291Z,4.57
2019-02-24T15:07:51.204Z,4.73
2019-02-24T15:10:22.076Z,4.87
2019-02-24T15:12:50.949Z,5.33
2019-02-24T15:15:22.275Z,5.00
2019-02-24T15:17:51.108Z,4.33
2019-02-24T15:20:20.820Z,4.57
2019-02-24T15:22:49.725Z,4.33
2019-02-24T15:25:19.098Z,4.23
2019-02-24T15:27:48.044Z,4.23
2019-02-24T15:30:35.892Z,5.03
2019-02-24T15:33:04.719Z,4.90
2019-02-24T15:35:33.563Z,4.53
2019-02-24T15:38:02.423Z,5.00
2019-02-24T15:40:31.180Z,4.60
2019-02-24T15:42:59.950Z,4.30
2019-02-24T15:45:28.774Z,4.40
2019-02-24T15:47:57.601Z,4.87
2019-02-24T15:50:26.436Z,4.80
2019-02-24T15:52:55.364Z,4.73
2019-02-24T15:55:24.316Z,4.80
2019-02-24T15:57:57.172Z,4.47
2019-02-24T16:00:27.622Z,4.43
2019-02-24T16:03:01.409Z,4.90
2019-02-24T16:05:26.954Z,3.83
2019-02-24T16:07:55.845Z,3.97
2019-02-24T16:10:24.668Z,4.00
2019-02-24T16:12:53.532Z,4.37
2019-02-24T16:15:27.238Z,4.07
2019-02-24T16:17:56.083Z,4.17
2019-02-24T16:20:36.388Z,3.93
2019-02-24T16:23:05.163Z,3.60
2019-02-24T16:25:33.988Z,3.13
2019-02-24T16:28:02.899Z,3.77
2019-02-24T16:30:31.621Z,3.60
2019-02-24T16:33:00.452Z,4.40
2019-02-24T16:35:29.332Z,4.43
2019-02-24T16:37:58.187Z,4.33
2019-02-24T16:40:29.684Z,3.77
2019-02-24T16:42:58.492Z,3.37
2019-02-24T16:45:27.270Z,4.17
2019-02-24T16:48:24.890Z,4.27
2019-02-24T16:51:18.812Z,3.63
2019-02-24T16:53:48.463Z,4.77
2019-02-24T16:56:17.301Z,3.57
2019-02-24T16:58:46.138Z,3.33
2019-02-24T17:01:15.084Z,3.70
2019-02-24T17:03:43.948Z,3.60
2019-02-24T17:06:12.788Z,4.97
2019-02-24T17:08:41.634Z,4.40
2019-02-24T17:11:10.477Z,3.77
2019-02-24T17:13:39.293Z,4.40
2019-02-24T17:16:08.237Z,4.23
2019-02-24T17:18:37.163Z,3.63
2019-02-24T17:21:05.903Z,3.53
2019-02-24T17:23:34.812Z,3.40
2019-02-24T17:26:04.494Z,3.87
2019-02-24T17:28:33.429Z,3.87
2019-02-24T17:31:02.389Z,3.97
2019-02-24T17:33:32.662Z,3.73
2019-02-24T17:36:01.644Z,3.63
2019-02-24T17:38:30.468Z,3.60
2019-02-24T17:40:59.293Z,4.47
2019-02-24T17:43:28.133Z,3.70
2019-02-24T17:45:57.011Z,4.77
2019-02-24T17:48:25.869Z,3.50
2019-02-24T17:50:54.709Z,3.87
2019-02-24T17:53:23.612Z,3.70
2019-02-24T17:55:52.484Z,3.73
2019-02-24T17:58:21.212Z,4.43
2019-02-24T18:00:58.869Z,3.17
2019-02-24T18:03:27.717Z,4.03
2019-02-24T18:05:56.539Z,3.50
2019-02-24T18:08:28.227Z,3.90
2019-02-24T18:10:55.821Z,3.20
2019-02-24T18:13:24.672Z,3.10
2019-02-24T18:15:53.491Z,3.53
2019-02-24T18:18:22.341Z,3.70
2019-02-24T18:20:51.197Z,3.77
2019-02-24T18:23:20.055Z,3.80
2019-02-24T18:25:48.891Z,3.77
2019-02-24T18:28:17.725Z,4.87
2019-02-24T18:30:46.613Z,4.13
2019-02-24T18:33:15.429Z,3.70
2019-02-24T18:35:44.282Z,4.47
2019-02-24T18:38:13.165Z,3.87
2019-02-24T18:40:41.980Z,4.63
2019-02-24T18:43:10.805Z,4.10
2019-02-24T18:45:39.699Z,3.90
2019-02-24T18:48:08.549Z,4.47
2019-02-24T18:50:37.381Z,4.77
2019-02-24T18:53:06.516Z,4.87
2019-02-24T18:55:35.427Z,4.30
2019-02-24T18:58:04.347Z,4.97
2019-02-24T19:00:33.324Z,4.70
2019-02-24T19:03:02.070Z,5.33
2019-02-24T19:05:31.161Z,5.33
2019-02-24T19:08:00.067Z,6.43
2019-02-24T19:10:28.876Z,6.17
2019-02-24T19:12:57.710Z,4.90
2019-02-24T19:15:26.573Z,4.73
2019-02-24T19:17:55.427Z,3.97
2019-02-24T19:20:25.108Z,4.20
2019-02-24T19:22:54.012Z,4.37
2019-02-24T19:25:22.844Z,4.70
2019-02-24T19:27:51.690Z,4.70
2019-02-24T19:30:21.038Z,4.80
2019-02-24T19:32:49.875Z,4.40
2019-02-24T19:35:19.501Z,4.87
2019-02-24T19:37:48.556Z,3.70
2019-02-24T19:40:19.364Z,5.43
2019-02-24T19:42:48.236Z,5.90
2019-02-24T19:45:24.612Z,6.83
2019-02-24T19:47:53.435Z,6.57
2019-02-24T19:50:22.460Z,5.23
2019-02-24T19:52:51.382Z,5.80
2019-02-24T19:55:20.388Z,6.03
2019-02-24T19:57:49.235Z,6.63
2019-02-24T20:00:20.485Z,7.77
2019-02-24T20:02:49.241Z,6.87
2019-02-24T20:05:18.381Z,5.97
2019-02-24T20:07:47.778Z,6.60
2019-02-24T20:10:22.005Z,6.47
2019-02-24T20:12:50.892Z,7.10
2019-02-24T20:15:19.781Z,7.70
2019-02-24T20:17:48.612Z,6.83
2019-02-24T20:20:17.854Z,6.77
2019-02-24T20:22:47.508Z,6.27
2019-02-24T20:25:20.323Z,6.03
2019-02-24T20:27:49.093Z,5.60
2019-02-24T20:30:20.908Z,5.57
2019-02-24T20:32:49.660Z,6.60
2019-02-24T20:35:18.652Z,5.00
2019-02-24T20:37:47.557Z,5.57
2019-02-24T20:40:16.396Z,5.77
2019-02-24T20:42:45.227Z,5.30
2019-02-24T20:45:16.739Z,5.00
2019-02-24T20:47:45.603Z,4.47
2019-02-24T20:50:16.628Z,5.60
2019-02-24T20:52:45.614Z,5.47
2019-02-24T20:55:14.464Z,5.00
2019-02-24T20:57:43.396Z,5.30
2019-02-24T21:00:18.404Z,5.83
2019-02-24T21:02:47.235Z,4.87
2019-02-24T21:05:16.085Z,4.77
2019-02-24T21:07:44.972Z,5.50
2019-02-24T21:10:13.804Z,5.97
2019-02-24T21:12:42.639Z,5.27
2019-02-24T21:15:13.962Z,7.07
2019-02-24T21:17:42.920Z,5.53
2019-02-24T21:20:17.750Z,5.83
2019-02-24T21:22:46.646Z,6.07
2019-02-24T21:25:15.469Z,6.07
2019-02-24T21:27:44.309Z,5.93
2019-02-24T21:30:15.726Z,6.47
2019-02-24T21:32:44.485Z,6.33
2019-02-24T21:35:13.507Z,6.70
2019-02-24T21:38:01.682Z,6.83
2019-02-24T21:40:30.508Z,5.77
2019-02-24T21:42:59.351Z,6.37
2019-02-24T21:45:29.028Z,5.53
2019-02-24T21:47:57.874Z,5.93
2019-02-24T21:50:26.700Z,6.70
2019-02-24T21:52:55.616Z,6.47
2019-02-24T21:55:24.364Z,5.70
2019-02-24T21:57:53.218Z,6.10
2019-02-24T22:00:26.172Z,5.77
2019-02-24T22:02:55.019Z,5.90
2019-02-24T22:05:23.785Z,5.93
2019-02-24T22:07:52.610Z,5.77
2019-02-24T22:10:21.431Z,5.90
2019-02-24T22:12:50.187Z,7.00
2019-02-24T22:15:26.117Z,7.30
2019-02-24T22:17:54.946Z,7.63
2019-02-24T22:20:23.787Z,6.90
2019-02-24T22:22:52.667Z,6.97
2019-02-24T22:25:21.428Z,7.27
2019-02-24T22:27:50.266Z,7.40
2019-02-24T22:30:20.372Z,7.63
2019-02-24T22:32:49.180Z,8.10
2019-02-24T22:35:18.020Z,7.47
2019-02-24T22:37:46.866Z,8.57
2019-02-24T22:40:16.966Z,7.27
2019-02-24T22:42:46.221Z,8.10
2019-02-24T22:45:19.755Z,7.37
2019-02-24T22:47:48.662Z,7.60
2019-02-24T22:50:17.468Z,7.20
2019-02-24T22:52:46.640Z,7.83
2019-02-24T22:55:16.683Z,7.00
2019-02-24T22:57:45.435Z,7.63
2019-02-24T23:00:37.131Z,7.03
2019-02-24T23:03:05.961Z,6.77
2019-02-24T23:05:34.778Z,7.27
2019-02-24T23:08:03.651Z,6.97
2019-02-24T23:10:32.476Z,6.93
2019-02-24T23:13:01.292Z,8.03
2019-02-24T23:15:30.146Z,10.03
2019-02-24T23:17:58.900Z,8.57
2019-02-24T23:20:27.635Z,10.07
2019-02-24T23:22:56.523Z,7.53
2019-02-24T23:25:25.258Z,7.57
2019-02-24T23:27:54.021Z,6.20
2019-02-24T23:30:22.908Z,6.73
2019-02-24T23:32:51.724Z,6.70
2019-02-24T23:35:20.498Z,6.60
2019-02-24T23:37:49.339Z,6.57
2019-02-24T23:40:18.155Z,6.10
2019-02-24T23:42:46.931Z,6.40
2019-02-24T23:45:15.714Z,7.77
2019-02-24T23:47:44.532Z,7.17
2019-02-24T23:50:13.765Z,6.97
2019-02-24T23:52:42.683Z,6.17
2019-02-24T23:55:11.794Z,6.40
2019-02-24T23:57:40.543Z,6.90
